< < Back
Terminal Aerodrome Forecast


Current Version              Previous Versions:   1  2  3  4  5  6  7  8  9  

Terminal Aerodrome Forecast

427
FTUS44 KOHX 290526
TAFBNA
TAF
KBNA 290526Z 2906/3006 01005KT P6SM SKC
     FM291600 36008G14KT P6SM SCT250
     FM300100 35005KT P6SM SCT250=

Latest METAR

209
SAUS70 KWBC 290900
MTRBNA
METAR KBNA 290853Z 01007KT 10SM CLR 22/17 A3003 RMK AO2 SLP161 T02170172
53005


USA.gov is the U.S. government's official web portal to all federal, state and local government web resources and services.